Time;durP1;ratioP1;P1;durP2;ratioP2;P2;SDS_P1;SDS_P2;PMS_P1;PMS_P2;Temp;Humidity;BMP_temperature;BMP_pressure;BME280_temperature;BME280_humidity;BME280_pressure;Samples;Min_cycle;Max_cycle;Signal;HPM_P1;HPM_P2
2021/06/14 00:29:03;;;;;;;20.95;11.45;;;;;;;;;;4383653;28;20136;-70
2021/06/14 00:31:29;;;;;;;19.48;12.02;;;;;;;;;;4246808;33;20548;-70
2021/06/14 00:33:55;;;;;;;23.62;11.93;;;;;;;;;;4246846;33;20521;-70
2021/06/14 00:36:21;;;;;;;21.00;14.30;;;;;;;;;;4246762;33;20199;-70
2021/06/14 00:38:47;;;;;;;19.10;12.93;;;;;;;;;;4246289;33;20181;-70
2021/06/14 00:41:13;;;;;;;21.85;13.77;;;;;;;;;;4246658;33;20124;-70
2021/06/14 00:43:39;;;;;;;18.08;13.18;;;;;;;;;;4246766;33;20114;-70
2021/06/14 00:46:05;;;;;;;21.25;12.63;;;;;;;;;;4246708;33;20219;-70
2021/06/14 00:48:31;;;;;;;19.62;12.65;;;;;;;;;;4245208;33;20120;-70
2021/06/14 00:50:58;;;;;;;18.33;12.00;;;;;;;;;;4246707;33;20120;-69
2021/06/14 00:53:35;;;;;;;17.60;11.63;;;;;;;;;;4246383;33;20128;-69
2021/06/14 00:56:02;;;;;;;15.07;7.50;;;;;;;;;;4246690;33;20467;-70
2021/06/14 00:58:28;;;;;;;19.65;11.57;;;;;;;;;;4246712;33;20108;-70
2021/06/14 01:00:54;;;;;;;17.30;10.95;;;;;;;;;;4246548;33;20598;-70
2021/06/14 01:03:20;;;;;;;20.50;13.05;;;;;;;;;;4246721;33;20103;-69
2021/06/14 01:05:48;;;;;;;16.70;10.85;;;;;;;;;;4246717;33;20117;-69
2021/06/14 01:08:14;;;;;;;18.73;11.48;;;;;;;;;;4246584;33;20117;-69
2021/06/14 01:10:41;;;;;;;23.83;12.45;;;;;;;;;;4233463;33;20131;-69
2021/06/14 01:13:25;;;;;;;24.23;10.30;;;;;;;;;;4246363;33;20100;-69
2021/06/14 01:16:09;;;;;;;19.98;11.40;;;;;;;;;;4246577;33;20097;-69
2021/06/14 01:18:40;;;;;;;22.30;10.95;;;;;;;;;;4246361;33;20093;-69
2021/06/14 01:21:16;;;;;;;25.05;10.68;;;;;;;;;;4245204;33;20099;-70
2021/06/14 01:24:14;;;;;;;15.95;5.93;;;;;;;;;;4233868;33;20131;-70
2021/06/14 01:26:44;;;;;;;20.85;9.82;;;;;;;;;;4245069;33;20451;-70
2021/06/14 01:29:10;;;;;;;13.45;6.90;;;;;;;;;;4244971;33;20121;-70
2021/06/14 01:31:36;;;;;;;13.13;7.95;;;;;;;;;;4244843;33;20108;-70
2021/06/14 01:34:02;;;;;;;10.73;7.20;;;;;;;;;;4233150;33;20108;-71
2021/06/14 01:36:38;;;;;;;14.65;8.50;;;;;;;;;;4246263;33;20124;-70
2021/06/14 01:39:07;;;;;;;11.88;7.32;;;;;;;;;;4233886;33;20215;-70
2021/06/14 01:41:33;;;;;;;17.65;9.02;;;;;;;;;;4244953;33;20132;-70
2021/06/14 01:43:59;;;;;;;13.43;9.05;;;;;;;;;;4246269;33;20130;-70
2021/06/14 01:46:28;;;;;;;12.30;8.38;;;;;;;;;;4233353;33;20137;-70
2021/06/14 01:48:55;;;;;;;16.05;8.05;;;;;;;;;;4244726;33;20207;-70
2021/06/14 01:51:23;;;;;;;12.20;7.97;;;;;;;;;;4246791;33;20159;-70
2021/06/14 01:54:07;;;;;;;11.02;8.38;;;;;;;;;;4246741;33;20108;-70
2021/06/14 01:56:37;;;;;;;14.23;8.63;;;;;;;;;;4247138;33;20097;-71
2021/06/14 01:59:04;;;;;;;12.85;8.75;;;;;;;;;;4246911;33;20124;-70
2021/06/14 02:01:30;;;;;;;14.52;8.55;;;;;;;;;;4235264;33;20175;-70
2021/06/14 02:03:58;;;;;;;14.25;9.13;;;;;;;;;;4232867;33;20093;-70
2021/06/14 02:06:29;;;;;;;20.30;10.38;;;;;;;;;;4232687;33;20104;-70
2021/06/14 02:08:57;;;;;;;14.63;9.18;;;;;;;;;;4232828;33;20137;-70
2021/06/14 02:11:23;;;;;;;18.87;9.10;;;;;;;;;;4232575;33;20555;-70
2021/06/14 02:13:49;;;;;;;20.48;9.18;;;;;;;;;;4232875;33;20109;-71
2021/06/14 02:16:15;;;;;;;18.52;10.23;;;;;;;;;;4232540;33;20132;-70
2021/06/14 02:18:41;;;;;;;19.15;9.40;;;;;;;;;;4232660;33;20128;-70
2021/06/14 02:21:07;;;;;;;20.20;10.25;;;;;;;;;;4232570;33;20215;-70
2021/06/14 02:23:33;;;;;;;14.07;8.88;;;;;;;;;;4234039;33;20119;-72
2021/06/14 02:25:59;;;;;;;13.13;8.90;;;;;;;;;;4232746;33;20121;-71
2021/06/14 02:28:25;;;;;;;19.37;9.48;;;;;;;;;;4234528;33;20109;-71
2021/06/14 02:30:51;;;;;;;18.48;10.15;;;;;;;;;;4246612;33;20143;-71
2021/06/14 02:33:17;;;;;;;22.30;9.70;;;;;;;;;;4247758;33;20100;-72
2021/06/14 02:35:42;;;;;;;11.50;8.73;;;;;;;;;;4246572;33;20540;-71
2021/06/14 02:38:08;;;;;;;14.52;9.63;;;;;;;;;;4246593;33;20101;-71
2021/06/14 02:40:34;;;;;;;15.75;9.85;;;;;;;;;;4235139;33;20108;-71
2021/06/14 02:43:02;;;;;;;17.50;10.20;;;;;;;;;;4247859;33;20532;-71
2021/06/14 02:45:28;;;;;;;11.82;8.77;;;;;;;;;;4246542;33;20204;-71
2021/06/14 02:47:54;;;;;;;17.35;10.10;;;;;;;;;;4234599;33;20101;-71
2021/06/14 02:50:20;;;;;;;17.90;9.48;;;;;;;;;;4246438;33;20595;-71
2021/06/14 02:52:48;;;;;;;22.33;10.23;;;;;;;;;;4246545;33;20116;-71
2021/06/14 02:55:15;;;;;;;15.18;11.10;;;;;;;;;;4235046;33;20096;-71
2021/06/14 02:57:44;;;;;;;16.50;9.35;;;;;;;;;;4234783;33;20100;-71
2021/06/14 03:00:10;;;;;;;15.02;9.77;;;;;;;;;;4246347;33;20498;-71
2021/06/14 03:02:36;;;;;;;17.58;12.43;;;;;;;;;;4246244;33;20517;-71
2021/06/14 03:05:02;;;;;;;23.92;17.12;;;;;;;;;;4234796;33;20132;-71
2021/06/14 03:07:28;;;;;;;20.52;15.80;;;;;;;;;;4247619;33;20116;-71
2021/06/14 03:09:54;;;;;;;26.12;16.10;;;;;;;;;;4246269;33;20123;-71
2021/06/14 03:12:20;;;;;;;21.83;15.70;;;;;;;;;;4247586;33;20203;-71
2021/06/14 03:14:46;;;;;;;26.62;17.48;;;;;;;;;;4247599;33;20517;-71
2021/06/14 03:17:12;;;;;;;27.37;19.30;;;;;;;;;;4246329;33;20146;-71
2021/06/14 03:19:38;;;;;;;28.05;17.15;;;;;;;;;;4247526;33;20556;-71
2021/06/14 03:22:09;;;;;;;27.55;18.95;;;;;;;;;;4234290;33;20234;-71
2021/06/14 03:24:36;;;;;;;31.42;22.85;;;;;;;;;;4247553;33;20102;-71
2021/06/14 03:27:02;;;;;;;35.17;24.60;;;;;;;;;;4234332;33;20537;-71
2021/06/14 03:29:28;;;;;;;36.00;23.87;;;;;;;;;;4247401;33;20093;-71
2021/06/14 03:31:54;;;;;;;33.38;23.83;;;;;;;;;;4245956;33;20207;-71
2021/06/14 03:34:21;;;;;;;38.15;22.95;;;;;;;;;;4246193;33;20128;-71
2021/06/14 03:36:47;;;;;;;33.17;22.62;;;;;;;;;;4247745;33;20512;-71
2021/06/14 03:39:16;;;;;;;32.97;22.48;;;;;;;;;;4234253;33;20116;-71
2021/06/14 03:41:46;;;;;;;34.50;21.87;;;;;;;;;;4247669;33;20135;-71
2021/06/14 03:44:12;;;;;;;32.95;23.23;;;;;;;;;;4247210;33;20109;-71
2021/06/14 03:46:38;;;;;;;35.65;24.77;;;;;;;;;;4245947;33;20284;-71
2021/06/14 03:49:05;;;;;;;29.25;21.60;;;;;;;;;;4247248;33;20104;-71
2021/06/14 03:51:31;;;;;;;32.35;22.67;;;;;;;;;;4245886;33;20200;-71
2021/06/14 03:53:57;;;;;;;28.80;20.70;;;;;;;;;;4247098;33;20092;-71
2021/06/14 03:56:28;;;;;;;35.15;23.67;;;;;;;;;;4247195;33;20156;-71
2021/06/14 03:58:54;;;;;;;38.63;23.65;;;;;;;;;;4246000;33;20138;-71
2021/06/14 04:01:20;;;;;;;40.40;25.77;;;;;;;;;;4247189;33;20116;-71
2021/06/14 04:04:16;;;;;;;42.65;25.12;;;;;;;;;;4247251;33;20116;-71
2021/06/14 04:06:35;;;;;;;39.88;27.95;;;;;;;;;;4247224;33;20445;-71
2021/06/14 04:09:00;;;;;;;42.88;28.73;;;;;;;;;;4247046;33;20119;-71
2021/06/14 04:11:26;;;;;;;41.72;27.67;;;;;;;;;;4247113;33;20128;-71
2021/06/14 04:13:55;;;;;;;52.17;30.33;;;;;;;;;;4245104;33;20132;-71
2021/06/14 04:16:21;;;;;;;46.08;28.00;;;;;;;;;;4245849;33;20244;-71
2021/06/14 04:18:47;;;;;;;39.08;26.90;;;;;;;;;;4245542;33;20222;-71
2021/06/14 04:21:13;;;;;;;42.22;25.33;;;;;;;;;;4247289;33;20120;-71
2021/06/14 04:23:39;;;;;;;34.45;22.95;;;;;;;;;;4247023;33;20124;-71
2021/06/14 04:26:06;;;;;;;37.35;22.10;;;;;;;;;;4247114;33;20119;-71
2021/06/14 04:28:33;;;;;;;29.85;20.52;;;;;;;;;;4246819;33;20100;-71
2021/06/14 04:30:59;;;;;;;30.65;18.87;;;;;;;;;;4245777;33;20432;-71
2021/06/14 04:33:25;;;;;;;31.60;19.85;;;;;;;;;;4245310;33;20576;-71
2021/06/14 04:35:51;;;;;;;20.17;16.70;;;;;;;;;;4246911;33;20101;-71
2021/06/14 04:38:17;;;;;;;19.35;15.27;;;;;;;;;;4246841;33;20089;-72
2021/06/14 04:40:42;;;;;;;24.27;15.05;;;;;;;;;;4246812;33;20143;-72
2021/06/14 04:43:08;;;;;;;15.38;13.68;;;;;;;;;;4246646;33;20558;-71
2021/06/14 04:45:34;;;;;;;14.82;13.02;;;;;;;;;;4246762;33;20176;-73
2021/06/14 04:48:00;;;;;;;20.33;12.48;;;;;;;;;;4246739;33;20544;-72
2021/06/14 04:50:26;;;;;;;12.50;10.20;;;;;;;;;;4246790;33;20101;-71
2021/06/14 04:52:52;;;;;;;20.05;10.18;;;;;;;;;;4246467;33;20184;-71
2021/06/14 04:55:18;;;;;;;10.55;8.77;;;;;;;;;;4246610;33;20128;-71
2021/06/14 04:57:44;;;;;;;9.35;7.87;;;;;;;;;;4245457;33;20547;-71
2021/06/14 05:00:10;;;;;;;7.82;6.78;;;;;;;;;;4246888;33;20120;-71
2021/06/14 05:02:36;;;;;;;8.32;6.90;;;;;;;;;;4246531;33;20101;-71
2021/06/14 05:05:03;;;;;;;10.38;7.07;;;;;;;;;;4246635;33;20131;-71
2021/06/14 05:07:29;;;;;;;10.43;6.05;;;;;;;;;;4245074;33;20096;-71
2021/06/14 05:09:56;;;;;;;8.48;5.75;;;;;;;;;;4246501;33;20563;-72
2021/06/14 05:12:23;;;;;;;6.80;6.10;;;;;;;;;;4246396;33;20136;-72
2021/06/14 05:14:49;;;;;;;7.53;5.15;;;;;;;;;;4246421;33;20115;-71
2021/06/14 05:17:17;;;;;;;8.55;5.82;;;;;;;;;;4246285;33;20608;-71
2021/06/14 05:19:44;;;;;;;8.95;5.87;;;;;;;;;;4246466;33;20121;-71
2021/06/14 05:22:10;;;;;;;5.62;5.03;;;;;;;;;;4246477;33;20113;-71
2021/06/14 05:24:35;;;;;;;6.12;4.47;;;;;;;;;;4246268;33;20136;-71
2021/06/14 05:27:02;;;;;;;7.55;5.00;;;;;;;;;;4246838;33;20127;-71
2021/06/14 05:29:28;;;;;;;4.80;4.28;;;;;;;;;;4248326;33;20176;-71
2021/06/14 05:31:54;;;;;;;8.50;5.05;;;;;;;;;;4247082;33;20545;-71
2021/06/14 05:34:20;;;;;;;7.12;4.45;;;;;;;;;;4247235;33;20120;-71
2021/06/14 05:36:46;;;;;;;5.82;4.57;;;;;;;;;;4247162;33;20112;-71
2021/06/14 05:39:12;;;;;;;11.70;4.43;;;;;;;;;;4248308;33;20124;-71
2021/06/14 05:41:38;;;;;;;4.12;3.72;;;;;;;;;;4248828;33;20132;-71
2021/06/14 05:44:04;;;;;;;4.55;3.75;;;;;;;;;;4248355;33;20133;-71
2021/06/14 05:46:30;;;;;;;5.37;3.90;;;;;;;;;;4248550;33;20203;-69
2021/06/14 05:48:57;;;;;;;6.30;4.12;;;;;;;;;;4247132;33;20100;-69
2021/06/14 05:51:24;;;;;;;8.20;4.10;;;;;;;;;;4248630;33;20090;-70
2021/06/14 05:53:50;;;;;;;7.07;3.60;;;;;;;;;;4248165;33;20113;-69
2021/06/14 05:56:16;;;;;;;8.63;3.80;;;;;;;;;;4248232;33;20124;-70
2021/06/14 05:58:42;;;;;;;8.18;4.22;;;;;;;;;;4248255;33;20097;-70
2021/06/14 06:01:08;;;;;;;5.75;4.32;;;;;;;;;;4246856;33;20469;-69
2021/06/14 06:03:34;;;;;;;6.18;4.35;;;;;;;;;;4248238;33;20123;-70
2021/06/14 06:06:00;;;;;;;5.80;4.68;;;;;;;;;;4247052;33;20111;-70
2021/06/14 06:08:26;;;;;;;6.28;4.37;;;;;;;;;;4248120;33;20127;-69
2021/06/14 06:10:52;;;;;;;5.72;3.92;;;;;;;;;;4248251;33;20212;-68
2021/06/14 06:13:18;;;;;;;15.55;3.42;;;;;;;;;;4246666;33;20113;-67
2021/06/14 06:15:43;;;;;;;6.32;4.00;;;;;;;;;;4248092;33;20148;-68
2021/06/14 06:18:09;;;;;;;5.95;3.70;;;;;;;;;;4248068;33;20110;-68
2021/06/14 06:20:35;;;;;;;5.82;4.03;;;;;;;;;;4248319;33;20232;-68
2021/06/14 06:23:01;;;;;;;9.20;3.80;;;;;;;;;;4247874;33;20192;-68
2021/06/14 06:25:27;;;;;;;4.72;3.70;;;;;;;;;;4248159;33;20104;-68
2021/06/14 06:27:53;;;;;;;3.80;3.40;;;;;;;;;;4234852;33;20132;-68
2021/06/14 06:30:27;;;;;;;4.57;3.35;;;;;;;;;;4247924;33;20140;-68
2021/06/14 06:32:52;;;;;;;4.68;3.40;;;;;;;;;;4247880;33;20445;-68
2021/06/14 06:35:19;;;;;;;6.07;3.60;;;;;;;;;;4247940;33;20159;-68
2021/06/14 06:37:45;;;;;;;4.20;3.40;;;;;;;;;;4247374;33;20096;-68
2021/06/14 06:40:12;;;;;;;5.35;3.53;;;;;;;;;;4247865;33;20135;-68
2021/06/14 06:42:38;;;;;;;4.18;3.78;;;;;;;;;;4234938;33;20536;-69
2021/06/14 06:45:05;;;;;;;5.50;3.90;;;;;;;;;;4247887;33;20128;-69
2021/06/14 06:47:31;;;;;;;5.85;3.90;;;;;;;;;;4247987;33;20127;-69
2021/06/14 06:49:57;;;;;;;3.90;3.42;;;;;;;;;;4247815;33;20136;-68
2021/06/14 06:52:22;;;;;;;3.65;3.10;;;;;;;;;;4247651;33;20224;-69
2021/06/14 06:54:48;;;;;;;4.03;3.62;;;;;;;;;;4247762;33;20136;-69
2021/06/14 06:57:16;;;;;;;4.28;3.17;;;;;;;;;;4247627;33;20118;-68
2021/06/14 06:59:42;;;;;;;3.75;3.35;;;;;;;;;;4247675;33;20116;-68
2021/06/14 07:02:08;;;;;;;5.32;3.30;;;;;;;;;;4247706;33;20132;-68
2021/06/14 07:04:34;;;;;;;4.53;3.37;;;;;;;;;;4247530;33;20151;-69
2021/06/14 07:07:00;;;;;;;3.83;3.10;;;;;;;;;;4246424;33;20093;-69
2021/06/14 07:09:26;;;;;;;5.32;3.37;;;;;;;;;;4247501;33;20139;-69
2021/06/14 07:11:52;;;;;;;14.43;3.30;;;;;;;;;;4247732;33;20121;-68
2021/06/14 07:14:18;;;;;;;5.15;3.40;;;;;;;;;;4247489;33;20119;-69
2021/06/14 07:16:44;;;;;;;5.05;3.10;;;;;;;;;;4247658;33;20120;-68
2021/06/14 07:19:09;;;;;;;3.92;3.10;;;;;;;;;;4247797;33;20273;-68
2021/06/14 07:21:35;;;;;;;3.62;3.03;;;;;;;;;;4247536;33;20640;-68
2021/06/14 07:24:01;;;;;;;5.40;2.70;;;;;;;;;;4247530;33;20523;-68
2021/06/14 07:26:28;;;;;;;3.28;2.97;;;;;;;;;;4247807;33;20116;-68
2021/06/14 07:28:54;;;;;;;5.80;2.97;;;;;;;;;;4247449;33;20133;-68
2021/06/14 07:31:20;;;;;;;4.00;3.30;;;;;;;;;;4247361;33;20140;-68
2021/06/14 07:33:48;;;;;;;6.62;2.90;;;;;;;;;;4245798;33;20219;-68
2021/06/14 07:36:14;;;;;;;4.97;2.85;;;;;;;;;;4246073;33;20104;-68
2021/06/14 07:38:40;;;;;;;3.05;2.72;;;;;;;;;;4247325;33;20524;-68
2021/06/14 07:41:06;;;;;;;4.53;2.65;;;;;;;;;;4247388;33;20215;-68
2021/06/14 07:43:32;;;;;;;7.82;2.80;;;;;;;;;;4246285;33;20437;-68
2021/06/14 07:45:58;;;;;;;5.87;2.75;;;;;;;;;;4247602;33;20175;-68
2021/06/14 07:48:24;;;;;;;3.78;2.90;;;;;;;;;;4246740;33;20113;-69
2021/06/14 07:50:51;;;;;;;7.15;3.20;;;;;;;;;;4246910;33;20120;-68
2021/06/14 07:53:17;;;;;;;4.90;3.12;;;;;;;;;;4247102;33;20512;-68
2021/06/14 07:55:43;;;;;;;5.90;2.92;;;;;;;;;;4247218;33;20151;-68
2021/06/14 07:58:09;;;;;;;3.05;2.55;;;;;;;;;;4247190;33;20436;-68
2021/06/14 08:00:35;;;;;;;4.37;2.83;;;;;;;;;;4247088;33;20132;-68
2021/06/14 08:03:01;;;;;;;4.30;3.20;;;;;;;;;;4247071;33;20085;-68
2021/06/14 08:05:27;;;;;;;3.30;2.72;;;;;;;;;;4247218;33;20207;-69
2021/06/14 08:07:53;;;;;;;3.40;2.92;;;;;;;;;;4247387;33;20119;-68
2021/06/14 08:10:19;;;;;;;4.53;3.03;;;;;;;;;;4247064;33;20227;-68
2021/06/14 08:12:49;;;;;;;2.87;2.50;;;;;;;;;;4245475;33;20108;-69
2021/06/14 08:15:25;;;;;;;6.87;2.92;;;;;;;;;;4234160;33;20092;-68
2021/06/14 08:17:53;;;;;;;3.42;2.67;;;;;;;;;;4247014;33;20453;-68
2021/06/14 08:25:34;;;;;;;3.03;2.78;;;;;;;;;;4245756;33;20136;-69
2021/06/14 08:28:00;;;;;;;3.30;2.80;;;;;;;;;;4245158;33;20433;-69
2021/06/14 08:30:26;;;;;;;2.78;2.58;;;;;;;;;;4247048;33;20120;-70
2021/06/14 08:32:52;;;;;;;2.83;2.62;;;;;;;;;;4245468;33;20115;-68
2021/06/14 08:35:19;;;;;;;3.45;2.92;;;;;;;;;;4246891;33;20085;-68
2021/06/14 08:37:47;;;;;;;5.95;2.58;;;;;;;;;;4246625;33;20528;-68
2021/06/14 08:40:14;;;;;;;3.05;2.70;;;;;;;;;;4246800;33;20208;-68
2021/06/14 08:42:40;;;;;;;3.35;2.80;;;;;;;;;;4246953;33;20113;-68
2021/06/14 08:45:07;;;;;;;4.00;2.75;;;;;;;;;;4246679;33;20179;-69
2021/06/14 08:47:32;;;;;;;3.10;2.80;;;;;;;;;;4246951;33;20095;-68
2021/06/14 08:49:58;;;;;;;8.27;2.80;;;;;;;;;;4233735;33;20183;-68
2021/06/14 08:52:25;;;;;;;3.05;2.55;;;;;;;;;;4233412;33;20113;-68
2021/06/14 08:54:51;;;;;;;5.03;3.03;;;;;;;;;;4233480;33;20121;-67
2021/06/14 08:57:17;;;;;;;3.08;2.53;;;;;;;;;;4246486;33;20504;-68
2021/06/14 08:59:44;;;;;;;2.67;2.47;;;;;;;;;;4246806;33;20291;-68
2021/06/14 09:02:11;;;;;;;5.55;2.67;;;;;;;;;;4247331;33;20179;-68
2021/06/14 09:04:37;;;;;;;3.17;2.87;;;;;;;;;;4247359;33;20108;-69
2021/06/14 09:07:04;;;;;;;3.50;2.80;;;;;;;;;;4248615;33;20188;-68
2021/06/14 09:09:30;;;;;;;3.00;2.70;;;;;;;;;;4247334;33;20127;-69
2021/06/14 09:11:58;;;;;;;5.68;3.08;;;;;;;;;;4247225;33;20437;-68
2021/06/14 09:14:26;;;;;;;4.93;2.83;;;;;;;;;;4236177;33;20139;-71
2021/06/14 09:16:54;;;;;;;4.28;2.45;;;;;;;;;;4248782;33;20092;-69
2021/06/14 09:19:25;;;;;;;3.85;2.70;;;;;;;;;;4246960;33;20132;-69
2021/06/14 09:21:54;;;;;;;2.97;2.60;;;;;;;;;;4248901;33;20305;-69
2021/06/14 09:24:24;;;;;;;3.97;2.45;;;;;;;;;;4248439;33;20103;-69
2021/06/14 09:26:50;;;;;;;2.90;2.65;;;;;;;;;;4247401;33;20112;-69
2021/06/14 09:29:27;;;;;;;4.30;2.50;;;;;;;;;;4247983;33;20530;-69
2021/06/14 09:32:01;;;;;;;2.90;2.70;;;;;;;;;;4246996;33;20090;-70
2021/06/14 09:34:36;;;;;;;3.08;2.78;;;;;;;;;;4248322;33;20093;-70
2021/06/14 09:37:06;;;;;;;3.42;2.70;;;;;;;;;;4248422;33;20214;-70
2021/06/14 09:39:37;;;;;;;6.65;2.40;;;;;;;;;;4248384;33;20112;-70
2021/06/14 09:42:12;;;;;;;4.00;2.97;;;;;;;;;;4248217;33;20108;-70
2021/06/14 09:44:37;;;;;;;2.60;2.40;;;;;;;;;;4248673;33;20089;-69
2021/06/14 09:47:05;;;;;;;3.45;2.20;;;;;;;;;;4248418;33;20113;-70
2021/06/14 09:49:32;;;;;;;2.78;1.87;;;;;;;;;;4248277;33;20207;-71
2021/06/14 09:51:58;;;;;;;3.95;2.37;;;;;;;;;;4248202;33;20103;-70
2021/06/14 09:54:28;;;;;;;7.30;3.10;;;;;;;;;;4248100;33;20132;-72
2021/06/14 09:56:55;;;;;;;2.40;2.05;;;;;;;;;;4248514;33;20179;-72
2021/06/14 09:59:27;;;;;;;4.50;2.47;;;;;;;;;;4248500;33;20131;-71
2021/06/14 10:02:14;;;;;;;3.67;2.45;;;;;;;;;;4248403;33;20171;-71
2021/06/14 10:04:40;;;;;;;2.12;2.00;;;;;;;;;;4247015;33;20215;-72
2021/06/14 10:07:24;;;;;;;3.80;2.60;;;;;;;;;;4246773;33;20148;-72
2021/06/14 10:09:52;;;;;;;2.40;2.05;;;;;;;;;;4248231;33;20116;-72
2021/06/14 10:12:28;;;;;;;5.47;2.70;;;;;;;;;;4247310;33;20124;-72
2021/06/14 10:14:59;;;;;;;3.75;1.98;;;;;;;;;;4248146;33;20593;-72
2021/06/14 10:17:31;;;;;;;4.35;2.60;;;;;;;;;;4246625;33;20124;-72
2021/06/14 10:20:15;;;;;;;3.47;2.70;;;;;;;;;;4248134;33;20464;-71
2021/06/14 10:22:42;;;;;;;2.13;2.00;;;;;;;;;;4248263;33;20117;-71
2021/06/14 10:25:08;;;;;;;3.12;2.65;;;;;;;;;;4246655;33;20425;-70
2021/06/14 10:27:35;;;;;;;5.15;2.60;;;;;;;;;;4246634;33;20159;-73
2021/06/14 10:30:01;;;;;;;2.50;2.28;;;;;;;;;;4248198;33;20119;-71
2021/06/14 10:32:27;;;;;;;4.53;2.65;;;;;;;;;;4248044;33;20219;-70
2021/06/14 10:34:53;;;;;;;3.33;2.97;;;;;;;;;;4234902;33;20263;-70
2021/06/14 10:37:23;;;;;;;3.25;2.80;;;;;;;;;;4247914;33;20331;-72
2021/06/14 10:39:51;;;;;;;3.42;2.67;;;;;;;;;;4234950;33;20169;-72
2021/06/14 10:42:17;;;;;;;3.28;2.80;;;;;;;;;;4247866;33;20532;-70
2021/06/14 10:44:44;;;;;;;3.97;2.60;;;;;;;;;;4247888;33;20101;-72
2021/06/14 10:47:10;;;;;;;4.40;2.35;;;;;;;;;;4246601;33;20119;-68
2021/06/14 10:49:36;;;;;;;4.20;2.90;;;;;;;;;;4246634;33;20227;-71
2021/06/14 10:52:04;;;;;;;3.22;2.65;;;;;;;;;;4234636;33;20132;-69
2021/06/14 10:54:45;;;;;;;2.87;2.17;;;;;;;;;;4246752;33;20112;-72
2021/06/14 10:57:12;;;;;;;1.95;1.70;;;;;;;;;;4247688;33;20128;-72
2021/06/14 10:59:42;;;;;;;3.42;2.70;;;;;;;;;;4247840;33;20207;-70
2021/06/14 11:02:09;;;;;;;3.00;2.40;;;;;;;;;;4247668;33;20096;-69
2021/06/14 11:04:35;;;;;;;4.60;2.75;;;;;;;;;;4247684;33;20108;-71
2021/06/14 11:07:01;;;;;;;4.62;2.70;;;;;;;;;;4246281;33;20221;-69
2021/06/14 11:09:37;;;;;;;2.17;1.98;;;;;;;;;;4247779;33;20121;-69
2021/06/14 11:12:04;;;;;;;3.92;2.92;;;;;;;;;;4246969;33;20336;-70
2021/06/14 11:14:43;;;;;;;7.12;2.58;;;;;;;;;;4248688;33;20105;-69
2021/06/14 11:17:18;;;;;;;2.50;2.10;;;;;;;;;;4247661;33;20100;-70
2021/06/14 11:20:07;;;;;;;5.50;3.10;;;;;;;;;;4247597;33;20089;-70
2021/06/14 11:22:41;;;;;;;5.22;3.00;;;;;;;;;;4240698;33;20123;-70
2021/06/14 11:25:35;;;;;;;6.03;3.50;;;;;;;;;;4245905;33;20551;-70
2021/06/14 11:28:04;;;;;;;2.85;2.62;;;;;;;;;;4247132;33;20154;-70
2021/06/14 11:30:34;;;;;;;2.25;2.05;;;;;;;;;;4246387;33;20172;-70
2021/06/14 11:33:01;;;;;;;4.82;2.80;;;;;;;;;;4246096;33;20113;-70
2021/06/14 11:35:28;;;;;;;6.95;3.50;;;;;;;;;;4246041;33;20219;-70
2021/06/14 11:37:54;;;;;;;4.18;2.20;;;;;;;;;;4247631;33;20234;-70
2021/06/14 11:40:33;;;;;;;3.30;2.67;;;;;;;;;;4247475;33;20116;-70
2021/06/14 11:43:09;;;;;;;3.15;2.85;;;;;;;;;;4246144;33;20147;-70
2021/06/14 11:45:41;;;;;;;5.20;3.30;;;;;;;;;;4247269;33;20097;-70
2021/06/14 11:48:17;;;;;;;2.87;2.00;;;;;;;;;;4247187;33;20108;-70
2021/06/14 11:50:43;;;;;;;10.05;2.30;;;;;;;;;;4247384;33;20100;-70
2021/06/14 11:53:09;;;;;;;3.62;3.25;;;;;;;;;;4247102;33;20086;-70
2021/06/14 11:55:36;;;;;;;3.78;2.55;;;;;;;;;;4247257;33;20230;-70
2021/06/14 11:58:04;;;;;;;2.40;2.20;;;;;;;;;;4245786;33;20476;-70
2021/06/14 12:00:41;;;;;;;4.25;2.78;;;;;;;;;;4247228;33;20104;-72
2021/06/14 12:03:16;;;;;;;3.72;3.25;;;;;;;;;;4247330;33;20156;-71
2021/06/14 12:05:42;;;;;;;7.37;2.78;;;;;;;;;;4247174;33;20505;-70
2021/06/14 12:08:09;;;;;;;4.60;2.45;;;;;;;;;;4247209;33;20103;-70
2021/06/14 12:10:34;;;;;;;6.03;2.83;;;;;;;;;;4245799;33;20175;-70
2021/06/14 12:13:04;;;;;;;5.18;2.65;;;;;;;;;;4247240;33;20453;-70
2021/06/14 12:15:32;;;;;;;2.28;2.08;;;;;;;;;;4247126;33;20159;-70
2021/06/14 12:17:58;;;;;;;3.10;2.67;;;;;;;;;;4247033;33;20647;-71
2021/06/14 12:20:26;;;;;;;3.85;1.95;;;;;;;;;;4246974;33;20113;-68
2021/06/14 12:23:04;;;;;;;3.30;2.83;;;;;;;;;;4245576;33;20100;-69
2021/06/14 12:25:33;;;;;;;6.00;2.58;;;;;;;;;;4234676;33;20207;-68
2021/06/14 12:28:06;;;;;;;3.78;2.78;;;;;;;;;;4246212;33;20551;-71
2021/06/14 12:30:32;;;;;;;4.00;2.78;;;;;;;;;;4245808;33;20170;-70
2021/06/14 12:32:58;;;;;;;3.67;2.58;;;;;;;;;;4245612;33;20109;-71
2021/06/14 12:35:24;;;;;;;5.20;1.87;;;;;;;;;;4244792;33;20542;-71
2021/06/14 12:37:50;;;;;;;2.65;2.45;;;;;;;;;;4246752;33;20093;-69
2021/06/14 12:40:23;;;;;;;1.70;1.60;;;;;;;;;;4247000;33;20132;-68
2021/06/14 12:42:59;;;;;;;2.30;2.00;;;;;;;;;;4246776;33;20441;-69
2021/06/14 12:45:25;;;;;;;1.50;1.40;;;;;;;;;;4246925;33;20108;-69
2021/06/14 12:47:55;;;;;;;4.28;2.70;;;;;;;;;;4246630;33;20531;-67
2021/06/14 12:50:32;;;;;;;3.35;2.83;;;;;;;;;;4257235;33;20532;-68
2021/06/14 12:53:00;;;;;;;3.72;3.42;;;;;;;;;;4246913;33;20479;-67
2021/06/14 12:55:31;;;;;;;1.52;1.42;;;;;;;;;;4246645;33;20120;-67
2021/06/14 12:57:57;;;;;;;2.75;2.55;;;;;;;;;;4246585;33;20124;-67
2021/06/14 13:00:30;;;;;;;3.72;2.78;;;;;;;;;;4256799;33;20101;-66
2021/06/14 13:02:59;;;;;;;4.47;2.62;;;;;;;;;;4256872;33;20124;-68
2021/06/14 13:05:29;;;;;;;3.85;2.30;;;;;;;;;;4245091;33;20122;-67
2021/06/14 13:08:00;;;;;;;2.45;2.25;;;;;;;;;;4246448;33;20143;-67
2021/06/14 13:10:46;;;;;;;4.00;3.20;;;;;;;;;;4246807;33;20534;-66
2021/06/14 13:13:19;;;;;;;4.43;1.92;;;;;;;;;;4250681;33;20504;-68
2021/06/14 13:15:50;;;;;;;2.35;2.15;;;;;;;;;;4245107;33;20200;-69
2021/06/14 13:18:18;;;;;;;2.45;2.25;;;;;;;;;;4246734;33;20187;-68
2021/06/14 13:20:45;;;;;;;2.03;1.83;;;;;;;;;;4246527;33;20120;-68
2021/06/14 13:23:19;;;;;;;8.75;3.08;;;;;;;;;;4246508;33;20086;-69
2021/06/14 13:25:47;;;;;;;1.80;1.70;;;;;;;;;;4244920;33;20099;-67
2021/06/14 13:28:35;;;;;;;7.68;2.72;;;;;;;;;;4245996;33;20672;-68
2021/06/14 13:31:06;;;;;;;1.52;1.45;;;;;;;;;;4239138;33;20116;-68
2021/06/14 13:36:09;;;;;;;5.10;3.10;;;;;;;;;;4233639;33;20527;-68
2021/06/14 13:38:36;;;;;;;5.53;3.22;;;;;;;;;;4246254;33;20116;-69
2021/06/14 13:41:04;;;;;;;2.47;2.28;;;;;;;;;;4245055;33;20153;-68
2021/06/14 13:43:32;;;;;;;5.37;3.58;;;;;;;;;;4246193;33;20531;-69
2021/06/14 13:45:59;;;;;;;7.62;3.40;;;;;;;;;;4246119;33;20104;-69
2021/06/14 13:48:25;;;;;;;2.53;2.30;;;;;;;;;;4235348;33;20111;-69
2021/06/14 13:50:59;;;;;;;4.10;2.50;;;;;;;;;;4248375;33;20222;-69
2021/06/14 13:53:29;;;;;;;6.07;2.80;;;;;;;;;;4248130;33;20108;-68
2021/06/14 13:56:00;;;;;;;4.30;3.05;;;;;;;;;;4246935;33;20089;-67
2021/06/14 13:58:39;;;;;;;2.28;2.10;;;;;;;;;;4247081;33;20210;-68
2021/06/14 14:01:19;;;;;;;4.55;3.55;;;;;;;;;;4248258;33;20124;-69
2021/06/14 14:03:59;;;;;;;4.72;3.15;;;;;;;;;;4248158;33;20123;-69
2021/06/14 14:06:26;;;;;;;5.05;3.40;;;;;;;;;;4248114;33;20097;-69
2021/06/14 14:08:56;;;;;;;2.78;2.28;;;;;;;;;;4248014;33;20123;-68
2021/06/14 14:11:21;;;;;;;8.20;3.92;;;;;;;;;;4248294;33;20264;-69
2021/06/14 14:14:02;;;;;;;2.47;2.25;;;;;;;;;;4247860;33;20128;-68
2021/06/14 14:16:28;;;;;;;3.62;3.33;;;;;;;;;;4248255;33;20432;-69
2021/06/14 14:18:54;;;;;;;3.92;3.03;;;;;;;;;;4248316;33;20124;-69
2021/06/14 14:21:22;;;;;;;3.62;3.05;;;;;;;;;;4246720;33;20631;-68
2021/06/14 14:23:48;;;;;;;2.30;2.10;;;;;;;;;;4248115;33;20532;-69
2021/06/14 14:26:14;;;;;;;5.45;3.42;;;;;;;;;;4247939;33;20128;-69
2021/06/14 14:28:40;;;;;;;15.40;3.05;;;;;;;;;;4246374;33;20199;-67
2021/06/14 14:31:07;;;;;;;9.80;3.28;;;;;;;;;;4247937;33;20488;-69
2021/06/14 14:33:35;;;;;;;5.43;3.17;;;;;;;;;;4246857;33;20108;-69
2021/06/14 14:36:05;;;;;;;4.85;3.00;;;;;;;;;;4247898;33;20516;-69
2021/06/14 14:38:32;;;;;;;4.62;3.12;;;;;;;;;;4247193;33;20113;-68
2021/06/14 14:41:00;;;;;;;4.47;3.37;;;;;;;;;;4246559;33;20555;-69
2021/06/14 14:43:26;;;;;;;7.70;3.30;;;;;;;;;;4246568;33;20116;-68
2021/06/14 14:45:52;;;;;;;4.80;3.58;;;;;;;;;;4248107;33;20104;-68
2021/06/14 14:48:19;;;;;;;5.57;3.45;;;;;;;;;;4246480;33;20127;-68
2021/06/14 14:50:45;;;;;;;4.43;3.12;;;;;;;;;;4246375;33;20116;-68
2021/06/14 14:53:11;;;;;;;9.48;6.05;;;;;;;;;;4246603;33;20143;-68
2021/06/14 14:55:39;;;;;;;17.42;6.95;;;;;;;;;;4234807;33;20117;-68
2021/06/14 14:58:05;;;;;;;10.60;6.87;;;;;;;;;;4247611;33;20183;-68
2021/06/14 15:00:34;;;;;;;24.65;12.80;;;;;;;;;;4246543;33;20532;-73
2021/06/14 15:03:00;;;;;;;16.65;10.05;;;;;;;;;;4246000;33;20124;-73
2021/06/14 15:05:29;;;;;;;18.83;8.13;;;;;;;;;;4247600;33;20108;-72
2021/06/14 15:07:55;;;;;;;11.07;7.87;;;;;;;;;;4246117;33;20101;-72
2021/06/14 15:10:22;;;;;;;9.20;4.85;;;;;;;;;;4247757;33;20189;-72
2021/06/14 15:12:48;;;;;;;12.82;5.68;;;;;;;;;;4247598;33;20520;-72
2021/06/14 15:15:16;;;;;;;12.40;5.57;;;;;;;;;;4247774;33;20270;-70
2021/06/14 15:17:45;;;;;;;14.05;7.10;;;;;;;;;;4247471;33;20437;-71